createdAt,value
2022-08-07T00:00:26.151Z,84.80
2022-08-07T00:02:53.780Z,84.40
2022-08-07T00:05:23.775Z,85.20
2022-08-07T00:07:59.940Z,85.10
2022-08-07T00:10:30.711Z,85.30
2022-08-07T00:13:02.292Z,85.40
2022-08-07T00:15:46.373Z,85.60
2022-08-07T00:18:24.808Z,86.30
2022-08-07T00:21:01.686Z,86.20
2022-08-07T00:23:34.192Z,86.20
2022-08-07T00:26:13.393Z,86.20
2022-08-07T00:28:56.465Z,86.50
2022-08-07T00:31:37.259Z,86.40
2022-08-07T00:34:08.531Z,86.50
2022-08-07T00:36:35.691Z,86.60
2022-08-07T00:39:05.800Z,86.80
2022-08-07T00:41:37.252Z,87.00
2022-08-07T00:44:12.342Z,86.90
2022-08-07T00:46:42.152Z,87.10
2022-08-07T00:49:10.876Z,86.90
2022-08-07T00:51:56.535Z,87.10
2022-08-07T00:54:26.168Z,87.50
2022-08-07T00:56:53.297Z,87.70
2022-08-07T00:59:32.383Z,87.90
2022-08-07T01:02:03.946Z,88.10
2022-08-07T01:04:45.453Z,88.30
2022-08-07T01:07:13.019Z,88.50
2022-08-07T01:10:06.897Z,88.90
2022-08-07T01:12:30.769Z,89.00
2022-08-07T01:15:01.010Z,89.70
2022-08-07T01:17:30.663Z,89.90
2022-08-07T01:20:04.996Z,90.00
2022-08-07T01:22:33.880Z,90.00
2022-08-07T01:25:02.404Z,90.30
2022-08-07T01:27:51.376Z,89.90
2022-08-07T01:30:19.123Z,90.20
2022-08-07T01:32:47.286Z,89.90
2022-08-07T01:35:17.177Z,90.00
2022-08-07T01:37:47.263Z,90.60
2022-08-07T01:40:21.383Z,90.90
2022-08-07T01:42:58.702Z,90.60
2022-08-07T01:45:37.338Z,91.00
2022-08-07T01:48:20.175Z,90.90
2022-08-07T01:50:58.963Z,90.50
2022-08-07T01:54:12.031Z,90.60
2022-08-07T01:56:34.180Z,90.90
2022-08-07T01:59:15.745Z,91.30
2022-08-07T02:02:00.169Z,91.60
2022-08-07T02:04:39.042Z,91.70
2022-08-07T02:07:22.309Z,91.90
2022-08-07T02:10:04.879Z,92.40
2022-08-07T02:12:39.449Z,92.50
2022-08-07T02:15:11.440Z,92.50
2022-08-07T02:17:49.611Z,92.40
2022-08-07T02:20:23.957Z,93.00
2022-08-07T02:23:00.128Z,93.20
2022-08-07T02:26:10.142Z,93.00
2022-08-07T02:28:25.409Z,92.80
2022-08-07T02:30:58.083Z,93.00
2022-08-07T02:33:42.084Z,93.10
2022-08-07T02:36:28.340Z,93.70
2022-08-07T02:39:16.331Z,93.50
2022-08-07T02:41:47.474Z,93.40
2022-08-07T02:44:20.757Z,93.50
2022-08-07T02:46:52.648Z,93.20
2022-08-07T02:49:56.157Z,93.90
2022-08-07T02:52:14.139Z,94.10
2022-08-07T02:54:43.842Z,94.30
2022-08-07T02:57:14.148Z,94.20
2022-08-07T03:00:00.816Z,94.80
2022-08-07T03:02:29.512Z,94.70
2022-08-07T03:04:58.568Z,94.80
2022-08-07T03:07:43.222Z,94.80
2022-08-07T03:10:17.985Z,94.90
2022-08-07T03:12:52.896Z,95.10
2022-08-07T03:15:30.366Z,95.30
2022-08-07T03:18:09.189Z,95.50
2022-08-07T03:20:37.152Z,95.90
2022-08-07T03:23:04.639Z,96.10
2022-08-07T03:25:46.777Z,96.50
2022-08-07T03:28:38.402Z,96.40
2022-08-07T03:31:24.452Z,96.40
2022-08-07T03:33:58.298Z,96.80
2022-08-07T03:36:30.197Z,96.90
2022-08-07T03:39:05.298Z,97.40
2022-08-07T03:41:42.320Z,97.50
2022-08-07T03:44:16.131Z,97.40
2022-08-07T03:47:13.656Z,98.20
2022-08-07T03:49:37.500Z,98.00
2022-08-07T03:52:07.693Z,97.90
2022-08-07T03:55:17.790Z,97.80
2022-08-07T03:58:32.409Z,98.20
2022-08-07T04:00:46.486Z,98.60
2022-08-07T04:03:21.348Z,98.30
2022-08-07T04:05:51.727Z,97.90
2022-08-07T04:08:26.785Z,98.60
2022-08-07T04:12:15.408Z,98.60
2022-08-07T04:14:10.443Z,98.70
2022-08-07T04:16:33.576Z,98.90
2022-08-07T04:19:14.834Z,98.70
2022-08-07T04:21:59.288Z,98.70
2022-08-07T04:24:39.151Z,99.50
2022-08-07T04:27:15.195Z,99.30
2022-08-07T04:30:01.165Z,99.40
2022-08-07T04:32:38.532Z,99.20
2022-08-07T04:35:12.777Z,99.30
2022-08-07T04:38:01.379Z,99.50
2022-08-07T04:40:29.979Z,99.50
2022-08-07T04:43:01.856Z,99.40
2022-08-07T04:46:03.139Z,99.60
2022-08-07T04:48:44.954Z,99.60
2022-08-07T04:51:36.276Z,99.30
2022-08-07T04:54:15.686Z,99.30
2022-08-07T04:58:12.485Z,99.90
2022-08-07T05:00:18.892Z,99.80
2022-08-07T05:03:38.801Z,99.80
2022-08-07T05:06:19.338Z,99.80
2022-08-07T05:09:01.494Z,99.80
2022-08-07T05:11:57.216Z,99.90
2022-08-07T05:14:56.079Z,99.90
2022-08-07T05:17:52.529Z,99.60
2022-08-07T05:20:21.574Z,99.80
2022-08-07T05:22:52.981Z,99.70
2022-08-07T05:25:25.744Z,99.40
2022-08-07T05:28:21.242Z,99.40
2022-08-07T05:30:54.478Z,99.70
2022-08-07T05:33:23.482Z,99.90
2022-08-07T05:35:52.992Z,99.90
2022-08-07T05:39:00.519Z,99.90
2022-08-07T05:41:16.606Z,99.90
2022-08-07T05:44:12.518Z,99.90
2022-08-07T05:46:38.385Z,99.90
2022-08-07T05:49:12.184Z,99.90
2022-08-07T05:51:46.673Z,99.90
2022-08-07T05:54:31.513Z,99.90
2022-08-07T05:57:09.332Z,99.90
2022-08-07T05:59:57.881Z,99.90
2022-08-07T06:02:31.249Z,99.90
2022-08-07T06:05:15.417Z,99.90
2022-08-07T06:08:13.070Z,99.90
2022-08-07T06:10:33.268Z,99.90
2022-08-07T06:13:03.408Z,99.90
2022-08-07T06:15:39.074Z,99.90
2022-08-07T06:18:13.999Z,99.90
2022-08-07T06:20:51.051Z,99.10
2022-08-07T06:24:36.878Z,99.00
2022-08-07T06:26:21.558Z,99.20
2022-08-07T06:28:58.988Z,98.30
2022-08-07T06:31:46.995Z,97.80
2022-08-07T06:34:16.442Z,97.50
2022-08-07T06:36:52.230Z,97.10
2022-08-07T06:40:17.140Z,96.70
2022-08-07T06:42:37.098Z,96.20
2022-08-07T06:45:25.483Z,95.90
2022-08-07T06:47:59.290Z,95.10
2022-08-07T06:50:36.448Z,94.20
2022-08-07T06:53:49.195Z,94.50
2022-08-07T06:56:01.451Z,93.80
2022-08-07T06:58:35.633Z,93.10
2022-08-07T07:01:10.528Z,92.10
2022-08-07T07:03:50.009Z,91.40
2022-08-07T07:06:26.553Z,90.50
2022-08-07T07:08:54.962Z,90.50
2022-08-07T07:12:07.848Z,89.80
2022-08-07T07:14:14.015Z,89.50
2022-08-07T07:16:49.993Z,88.50
2022-08-07T07:19:56.157Z,87.30
2022-08-07T07:22:35.722Z,87.00
2022-08-07T07:25:13.903Z,87.20
2022-08-07T07:28:07.445Z,86.40
2022-08-07T07:30:39.728Z,85.40
2022-08-07T07:33:11.513Z,84.80
2022-08-07T07:35:54.752Z,84.10
2022-08-07T07:38:28.887Z,83.60
2022-08-07T07:41:02.448Z,83.90
2022-08-07T07:43:47.907Z,83.40
2022-08-07T07:46:53.362Z,82.00
2022-08-07T07:50:35.567Z,82.00
2022-08-07T07:52:00.248Z,81.70
2022-08-07T07:54:29.705Z,80.40
2022-08-07T07:56:58.695Z,79.90
2022-08-07T07:59:52.184Z,79.90
2022-08-07T08:02:22.551Z,78.50
2022-08-07T08:05:14.318Z,78.40
2022-08-07T08:07:59.677Z,76.80
2022-08-07T08:10:37.786Z,76.10
2022-08-07T08:13:10.672Z,75.00
2022-08-07T08:15:58.585Z,74.60
2022-08-07T08:18:28.348Z,74.00
2022-08-07T08:20:58.516Z,73.60
2022-08-07T08:23:46.980Z,71.40
2022-08-07T08:26:34.941Z,71.60
2022-08-07T08:29:04.268Z,70.60
2022-08-07T08:32:17.030Z,69.20
2022-08-07T08:34:33.840Z,68.90
2022-08-07T08:37:09.842Z,68.70
2022-08-07T08:39:55.120Z,68.60
2022-08-07T08:42:45.184Z,67.10
2022-08-07T08:45:20.963Z,65.80
2022-08-07T08:48:05.155Z,66.70
2022-08-07T08:51:03.379Z,62.90
2022-08-07T08:53:56.604Z,64.00
2022-08-07T08:56:33.102Z,65.40
2022-08-07T08:59:30.484Z,63.60
2022-08-07T09:02:13.512Z,61.90
2022-08-07T09:04:54.848Z,61.10
2022-08-07T09:07:58.098Z,61.60
2022-08-07T09:10:37.502Z,61.90
2022-08-07T09:13:37.029Z,60.30
2022-08-07T09:16:29.951Z,59.00
2022-08-07T09:19:53.542Z,58.90
2022-08-07T09:24:54.824Z,59.80
2022-08-07T09:26:17.219Z,59.00
2022-08-07T09:30:01.463Z,56.90
2022-08-07T09:32:26.338Z,57.20
2022-08-07T09:35:04.839Z,56.70
2022-08-07T09:38:30.949Z,57.50
2022-08-07T09:41:05.133Z,56.00
2022-08-07T09:44:05.829Z,55.70
2022-08-07T09:47:51.295Z,55.40
2022-08-07T09:50:01.160Z,53.90
2022-08-07T09:52:55.357Z,53.60
2022-08-07T09:56:02.712Z,53.40
2022-08-07T09:58:35.763Z,51.90
2022-08-07T10:01:08.448Z,49.80
2022-08-07T10:04:16.013Z,51.30
2022-08-07T10:07:25.953Z,52.80
2022-08-07T10:10:02.500Z,49.80
2022-08-07T10:12:41.899Z,51.70
2022-08-07T10:16:24.895Z,51.50
2022-08-07T10:19:03.819Z,50.80
2022-08-07T10:22:15.421Z,51.00
2022-08-07T10:24:49.220Z,49.30
2022-08-07T10:27:46.515Z,48.60
2022-08-07T10:30:28.880Z,49.70
2022-08-07T10:33:23.678Z,49.20
2022-08-07T10:36:39.505Z,48.70
2022-08-07T10:39:41.305Z,48.70
2022-08-07T10:42:31.400Z,48.60
2022-08-07T10:45:44.339Z,49.60
2022-08-07T10:48:24.550Z,49.70
2022-08-07T10:51:16.309Z,49.60
2022-08-07T10:54:33.179Z,48.50
2022-08-07T10:57:34.546Z,49.20
2022-08-07T11:00:42.825Z,48.70
2022-08-07T11:03:10.877Z,48.90
2022-08-07T11:05:58.216Z,48.70
2022-08-07T11:08:58.736Z,49.80
2022-08-07T11:11:29.743Z,49.80
2022-08-07T11:14:45.144Z,49.00
2022-08-07T11:17:45.075Z,47.70
2022-08-07T11:20:24.669Z,48.70
2022-08-07T11:23:09.271Z,47.90
2022-08-07T11:25:50.272Z,49.00
2022-08-07T11:28:20.053Z,48.20
2022-08-07T11:31:02.820Z,48.90
2022-08-07T11:34:10.298Z,47.10
2022-08-07T11:36:40.984Z,47.70
2022-08-07T11:40:00.415Z,48.40
2022-08-07T11:43:15.555Z,49.00
2022-08-07T11:46:21.325Z,47.70
2022-08-07T11:49:50.152Z,45.40
2022-08-07T11:51:49.118Z,46.50
2022-08-07T11:54:31.803Z,45.90
2022-08-07T11:57:57.920Z,46.20
2022-08-07T12:01:00.136Z,45.70
2022-08-07T12:03:44.618Z,45.60
2022-08-07T12:06:36.944Z,45.50
2022-08-07T12:09:16.793Z,45.40
2022-08-07T12:12:09.562Z,44.20
2022-08-07T12:14:55.450Z,44.60
2022-08-07T12:17:38.826Z,44.20
2022-08-07T12:20:18.549Z,43.60
2022-08-07T12:24:06.001Z,43.80
2022-08-07T12:26:49.076Z,42.60
2022-08-07T12:29:54.197Z,43.00
2022-08-07T12:32:59.182Z,44.50
2022-08-07T12:35:29.348Z,44.40
2022-08-07T12:38:11.218Z,42.90
2022-08-07T12:40:47.780Z,42.70
2022-08-07T12:44:01.829Z,44.40
2022-08-07T12:46:26.185Z,44.40
2022-08-07T12:49:25.718Z,43.80
2022-08-07T12:52:29.267Z,43.50
2022-08-07T12:55:22.420Z,42.10
2022-08-07T12:58:12.942Z,42.00
2022-08-07T13:01:04.686Z,44.10
2022-08-07T13:04:05.239Z,44.20
2022-08-07T13:07:01.765Z,44.50
2022-08-07T13:10:22.099Z,43.20
2022-08-07T13:13:10.890Z,43.40
2022-08-07T13:15:59.909Z,44.90
2022-08-07T13:18:50.846Z,44.30
2022-08-07T13:21:51.112Z,43.60
2022-08-07T13:24:43.966Z,42.80
2022-08-07T13:28:10.679Z,43.10
2022-08-07T13:30:40.319Z,42.00
2022-08-07T13:34:31.724Z,43.10
2022-08-07T13:36:17.344Z,43.50
2022-08-07T13:38:54.185Z,43.20
2022-08-07T13:41:47.314Z,43.80
2022-08-07T13:44:26.184Z,44.00
2022-08-07T13:46:59.614Z,43.10
2022-08-07T13:50:44.025Z,42.60
2022-08-07T13:52:27.160Z,42.30
2022-08-07T13:55:10.825Z,43.20
2022-08-07T13:57:59.173Z,45.00
2022-08-07T14:00:39.495Z,44.70
2022-08-07T14:03:29.027Z,44.80
2022-08-07T14:05:58.581Z,43.60
2022-08-07T14:08:26.421Z,43.50
2022-08-07T14:11:01.960Z,43.30
2022-08-07T14:13:45.133Z,42.80
2022-08-07T14:16:16.896Z,43.50
2022-08-07T14:18:57.218Z,44.80
2022-08-07T14:22:01.860Z,44.10
2022-08-07T14:24:41.393Z,42.50
2022-08-07T14:28:09.970Z,42.00
2022-08-07T14:30:11.325Z,43.20
2022-08-07T14:32:47.304Z,43.70
2022-08-07T14:35:44.499Z,44.50
2022-08-07T14:38:26.645Z,44.70
2022-08-07T14:41:05.094Z,43.50
2022-08-07T14:43:57.211Z,43.00
2022-08-07T14:46:26.380Z,43.00
2022-08-07T14:49:55.738Z,42.30
2022-08-07T14:52:03.929Z,42.60
2022-08-07T14:54:42.244Z,41.90
2022-08-07T15:00:06.587Z,42.30
2022-08-07T15:02:37.378Z,40.90
2022-08-07T15:05:19.798Z,42.30
2022-08-07T15:07:51.924Z,41.60
2022-08-07T15:10:26.360Z,42.40
2022-08-07T15:12:59.774Z,41.80
2022-08-07T15:15:38.894Z,42.30
2022-08-07T15:18:14.504Z,42.00
2022-08-07T15:21:08.381Z,42.50
2022-08-07T15:26:59.241Z,42.60
2022-08-07T15:30:08.904Z,42.20
2022-08-07T15:32:38.897Z,43.60
2022-08-07T15:35:14.567Z,42.10
2022-08-07T15:38:17.365Z,42.60
2022-08-07T15:40:38.941Z,43.00
2022-08-07T15:46:31.674Z,43.80
2022-08-07T15:52:01.621Z,44.10
2022-08-07T15:54:39.516Z,45.10
2022-08-07T15:57:27.962Z,44.90
2022-08-07T16:00:00.025Z,44.70
2022-08-07T16:02:39.856Z,44.40
2022-08-07T16:05:19.764Z,45.40
2022-08-07T16:08:31.291Z,45.20
2022-08-07T16:10:47.302Z,45.10
2022-08-07T16:13:39.516Z,46.00
2022-08-07T16:16:48.468Z,44.90
2022-08-07T16:19:59.782Z,46.00
2022-08-07T16:22:55.014Z,46.00
2022-08-07T16:25:54.323Z,46.80
2022-08-07T16:30:07.033Z,46.40
2022-08-07T16:31:50.934Z,46.20
2022-08-07T16:34:31.691Z,46.60
2022-08-07T16:38:03.602Z,47.00
2022-08-07T16:40:28.189Z,47.10
2022-08-07T16:43:14.727Z,48.00
2022-08-07T16:47:06.008Z,47.60
2022-08-07T16:50:27.192Z,47.60
2022-08-07T16:52:55.839Z,48.10
2022-08-07T16:55:47.418Z,48.20
2022-08-07T16:58:54.358Z,48.20
2022-08-07T17:01:34.554Z,48.90
2022-08-07T17:04:26.033Z,48.50
2022-08-07T17:07:05.918Z,48.70
2022-08-07T17:10:06.225Z,49.10
2022-08-07T17:12:47.768Z,49.20
2022-08-07T17:15:43.803Z,49.60
2022-08-07T17:18:18.568Z,50.10
2022-08-07T17:20:46.650Z,49.80
2022-08-07T17:23:22.858Z,49.90
2022-08-07T17:26:02.221Z,50.20
2022-08-07T17:28:52.486Z,50.10
2022-08-07T17:31:25.661Z,50.40
2022-08-07T17:34:15.093Z,50.70
2022-08-07T17:36:59.968Z,50.50
2022-08-07T17:40:07.914Z,50.80
2022-08-07T17:42:35.901Z,51.00
2022-08-07T17:45:34.939Z,51.00
2022-08-07T17:48:10.357Z,51.30
2022-08-07T17:51:07.591Z,51.40
2022-08-07T17:54:11.538Z,51.60
2022-08-07T17:56:49.927Z,51.50
2022-08-07T17:59:35.774Z,51.50
2022-08-07T18:02:23.439Z,52.10
2022-08-07T18:06:01.303Z,52.20
2022-08-07T18:08:36.505Z,52.70
2022-08-07T18:12:08.194Z,54.20
2022-08-07T18:14:46.297Z,54.80
2022-08-07T18:18:47.119Z,54.70
2022-08-07T18:21:08.598Z,55.00
2022-08-07T18:23:57.274Z,55.90
2022-08-07T18:26:54.768Z,56.60
2022-08-07T18:30:07.772Z,56.70
2022-08-07T18:36:53.994Z,55.60
2022-08-07T18:40:07.321Z,56.40
2022-08-07T18:43:14.958Z,56.70
2022-08-07T18:46:21.537Z,57.70
2022-08-07T18:50:32.561Z,57.50
2022-08-07T18:52:37.533Z,57.60
2022-08-07T18:55:42.683Z,58.60
2022-08-07T18:58:51.322Z,58.80
2022-08-07T19:02:19.817Z,60.20
2022-08-07T19:05:17.635Z,60.60
2022-08-07T19:07:58.725Z,61.20
2022-08-07T19:14:51.891Z,60.80
2022-08-07T19:17:54.339Z,61.50
2022-08-07T19:21:08.899Z,61.30
2022-08-07T19:24:05.288Z,61.70
2022-08-07T19:28:28.286Z,62.30
2022-08-07T19:31:01.228Z,63.20
2022-08-07T19:32:52.776Z,63.10
2022-08-07T19:35:33.076Z,63.00
2022-08-07T19:38:15.123Z,63.20
2022-08-07T19:41:45.009Z,63.50
2022-08-07T19:44:33.946Z,63.70
2022-08-07T19:47:36.494Z,62.90
2022-08-07T19:50:41.562Z,62.80
2022-08-07T19:53:00.886Z,62.90
2022-08-07T19:55:56.875Z,63.50
2022-08-07T19:58:28.483Z,63.80
2022-08-07T20:01:21.357Z,64.20
2022-08-07T20:03:52.163Z,62.90
2022-08-07T20:06:30.691Z,63.00
2022-08-07T20:09:02.940Z,63.30
2022-08-07T20:12:01.382Z,63.80
2022-08-07T20:14:31.774Z,63.90
2022-08-07T20:17:05.931Z,64.30
2022-08-07T20:19:48.117Z,64.50
2022-08-07T20:22:33.961Z,64.60
2022-08-07T20:25:12.767Z,64.60
2022-08-07T20:27:58.093Z,64.20
2022-08-07T20:30:34.558Z,65.00
2022-08-07T20:33:05.540Z,65.10
2022-08-07T20:35:54.668Z,64.50
2022-08-07T20:38:29.802Z,64.50
2022-08-07T20:41:03.899Z,64.10
2022-08-07T20:43:35.173Z,64.70
2022-08-07T20:46:28.240Z,64.80
2022-08-07T20:49:58.286Z,64.80
2022-08-07T20:51:49.179Z,64.70
2022-08-07T20:54:29.590Z,64.70
2022-08-07T20:57:10.409Z,64.80
2022-08-07T21:00:06.969Z,65.00
2022-08-07T21:02:54.137Z,65.00
2022-08-07T21:05:42.775Z,65.40
2022-08-07T21:08:36.414Z,66.80
2022-08-07T21:11:05.510Z,66.20
2022-08-07T21:13:43.619Z,66.20
2022-08-07T21:16:37.754Z,66.30
2022-08-07T21:19:32.192Z,66.80
2022-08-07T21:22:16.682Z,66.70
2022-08-07T21:25:12.387Z,66.90
2022-08-07T21:27:53.536Z,67.00
2022-08-07T21:30:23.724Z,67.80
2022-08-07T21:33:09.852Z,67.90
2022-08-07T21:36:05.825Z,67.90
2022-08-07T21:42:51.279Z,68.40
2022-08-07T21:46:10.079Z,68.40
2022-08-07T21:48:42.539Z,68.70
2022-08-07T21:51:32.012Z,69.20
2022-08-07T21:54:31.732Z,69.20
2022-08-07T21:57:08.044Z,69.00
2022-08-07T22:00:05.316Z,69.10
2022-08-07T22:02:47.780Z,69.50
2022-08-07T22:05:44.009Z,69.40
2022-08-07T22:08:10.264Z,70.00
2022-08-07T22:10:38.649Z,70.40
2022-08-07T22:13:14.429Z,69.60
2022-08-07T22:16:42.302Z,69.50
2022-08-07T22:19:02.073Z,70.80
2022-08-07T22:22:04.344Z,70.10
2022-08-07T22:24:54.169Z,70.60
2022-08-07T22:28:07.215Z,70.40
2022-08-07T22:30:18.212Z,70.90
2022-08-07T22:33:09.295Z,70.80
2022-08-07T22:35:58.080Z,71.80
2022-08-07T22:38:48.888Z,71.70
2022-08-07T22:42:03.485Z,71.50
2022-08-07T22:44:24.889Z,71.40
2022-08-07T22:47:18.969Z,72.00
2022-08-07T22:50:20.893Z,72.00
2022-08-07T22:53:16.965Z,71.70
2022-08-07T22:56:00.952Z,72.40
2022-08-07T22:58:50.539Z,71.90
2022-08-07T23:01:49.742Z,73.60
2022-08-07T23:04:45.208Z,73.90
2022-08-07T23:07:48.292Z,73.10
2022-08-07T23:11:12.988Z,72.60
2022-08-07T23:14:17.257Z,72.60
2022-08-07T23:17:19.826Z,73.10
2022-08-07T23:20:40.281Z,74.40
2022-08-07T23:24:05.233Z,74.40
2022-08-07T23:26:30.702Z,74.70
2022-08-07T23:29:17.184Z,75.00
2022-08-07T23:34:23.185Z,75.70
2022-08-07T23:35:22.784Z,74.90
2022-08-07T23:38:03.993Z,75.30
2022-08-07T23:40:49.205Z,75.40
2022-08-07T23:43:52.686Z,76.40
2022-08-07T23:46:50.779Z,76.80
2022-08-07T23:49:50.170Z,76.00
2022-08-07T23:52:59.451Z,76.70
2022-08-07T23:55:52.464Z,76.60
2022-08-07T23:58:24.675Z,77.30
